sensor_id;sensor_type;location;lat;lon;timestamp;pressure;altitude;pressure_sealevel;temperature;humidity
50292;BME280;36190;54.980;73.388;2023-01-29T00:00:06;100207.63;;;-6.86;80.39
50292;BME280;36190;54.980;73.388;2023-01-29T00:02:36;100205.75;;;-6.82;80.34
50292;BME280;36190;54.980;73.388;2023-01-29T00:05:04;100211.81;;;-6.83;80.22
50292;BME280;36190;54.980;73.388;2023-01-29T00:07:32;100212.66;;;-6.83;80.38
50292;BME280;36190;54.980;73.388;2023-01-29T00:10:00;100218.81;;;-6.85;80.34
50292;BME280;36190;54.980;73.388;2023-01-29T00:12:27;100222.38;;;-6.88;80.47
50292;BME280;36190;54.980;73.388;2023-01-29T00:14:54;100213.84;;;-6.92;80.30
50292;BME280;36190;54.980;73.388;2023-01-29T00:17:22;100218.09;;;-6.89;80.60
50292;BME280;36190;54.980;73.388;2023-01-29T00:19:51;100225.81;;;-6.87;80.54
50292;BME280;36190;54.980;73.388;2023-01-29T00:22:18;100224.97;;;-6.88;80.63
50292;BME280;36190;54.980;73.388;2023-01-29T00:24:46;100232.75;;;-6.88;80.58
50292;BME280;36190;54.980;73.388;2023-01-29T00:27:13;100235.47;;;-6.91;80.79
50292;BME280;36190;54.980;73.388;2023-01-29T00:29:40;100231.97;;;-6.90;81.06
50292;BME280;36190;54.980;73.388;2023-01-29T00:32:08;100234.50;;;-6.88;80.71
50292;BME280;36190;54.980;73.388;2023-01-29T00:34:35;100238.03;;;-6.89;80.75
50292;BME280;36190;54.980;73.388;2023-01-29T00:37:04;100232.03;;;-6.92;80.81
50292;BME280;36190;54.980;73.388;2023-01-29T00:39:33;100236.47;;;-6.95;80.85
50292;BME280;36190;54.980;73.388;2023-01-29T00:42:04;100230.47;;;-6.96;81.01
50292;BME280;36190;54.980;73.388;2023-01-29T00:44:48;100236.38;;;-6.92;81.08
50292;BME280;36190;54.980;73.388;2023-01-29T00:47:25;100232.09;;;-6.93;81.11
50292;BME280;36190;54.980;73.388;2023-01-29T00:49:58;100232.09;;;-6.93;80.97
50292;BME280;36190;54.980;73.388;2023-01-29T00:52:28;100229.75;;;-6.99;81.27
50292;BME280;36190;54.980;73.388;2023-01-29T00:54:56;100230.34;;;-6.93;81.28
50292;BME280;36190;54.980;73.388;2023-01-29T00:57:26;100230.41;;;-6.94;81.19
50292;BME280;36190;54.980;73.388;2023-01-29T00:59:53;100234.63;;;-6.92;81.26
50292;BME280;36190;54.980;73.388;2023-01-29T01:02:21;100238.03;;;-6.89;81.34
50292;BME280;36190;54.980;73.388;2023-01-29T01:05:07;100237.88;;;-6.86;81.27
50292;BME280;36190;54.980;73.388;2023-01-29T01:07:40;100239.56;;;-6.85;81.38
50292;BME280;36190;54.980;73.388;2023-01-29T01:10:09;100237.75;;;-6.83;81.36
50292;BME280;36190;54.980;73.388;2023-01-29T01:12:54;100242.94;;;-6.83;81.42
50292;BME280;36190;54.980;73.388;2023-01-29T01:15:23;100227.63;;;-6.89;81.62
50292;BME280;36190;54.980;73.388;2023-01-29T01:17:52;100236.88;;;-6.82;81.53
50292;BME280;36190;54.980;73.388;2023-01-29T01:20:20;100243.66;;;-6.80;81.68
50292;BME280;36190;54.980;73.388;2023-01-29T01:22:49;100240.13;;;-6.77;81.68
50292;BME280;36190;54.980;73.388;2023-01-29T01:25:17;100249.47;;;-6.73;81.75
50292;BME280;36190;54.980;73.388;2023-01-29T01:27:44;100248.50;;;-6.70;81.74
50292;BME280;36190;54.980;73.388;2023-01-29T01:30:15;100246.75;;;-6.70;81.76
50292;BME280;36190;54.980;73.388;2023-01-29T01:32:42;100248.44;;;-6.69;81.74
50292;BME280;36190;54.980;73.388;2023-01-29T01:35:11;100254.41;;;-6.67;81.85
50292;BME280;36190;54.980;73.388;2023-01-29T01:37:39;100253.53;;;-6.66;81.94
50292;BME280;36190;54.980;73.388;2023-01-29T01:40:13;100261.31;;;-6.66;81.94
50292;BME280;36190;54.980;73.388;2023-01-29T01:42:42;100253.44;;;-6.64;81.85
50292;BME280;36190;54.980;73.388;2023-01-29T01:45:18;100253.53;;;-6.66;82.10
50292;BME280;36190;54.980;73.388;2023-01-29T01:47:48;100245.84;;;-6.69;82.15
50292;BME280;36190;54.980;73.388;2023-01-29T01:50:19;100267.09;;;-6.59;81.98
50292;BME280;36190;54.980;73.388;2023-01-29T01:52:52;100264.56;;;-6.60;82.08
50292;BME280;36190;54.980;73.388;2023-01-29T01:55:25;100260.28;;;-6.61;82.00
50292;BME280;36190;54.980;73.388;2023-01-29T01:57:56;100256.00;;;-6.63;82.13
50292;BME280;36190;54.980;73.388;2023-01-29T02:00:26;100268.19;;;-6.65;82.24
50292;BME280;36190;54.980;73.388;2023-01-29T02:02:53;100268.19;;;-6.65;82.16
50292;BME280;36190;54.980;73.388;2023-01-29T02:05:38;100271.56;;;-6.63;82.24
50292;BME280;36190;54.980;73.388;2023-01-29T02:08:28;100273.13;;;-6.58;82.31
50292;BME280;36190;54.980;73.388;2023-01-29T02:11:17;100282.63;;;-6.57;82.22
50292;BME280;36190;54.980;73.388;2023-01-29T02:13:45;100278.97;;;-6.53;82.27
50292;BME280;36190;54.980;73.388;2023-01-29T02:16:19;100283.25;;;-6.52;82.26
50292;BME280;36190;54.980;73.388;2023-01-29T02:18:46;100284.03;;;-6.50;82.27
50292;BME280;36190;54.980;73.388;2023-01-29T02:21:39;100288.22;;;-6.46;82.38
50292;BME280;36190;54.980;73.388;2023-01-29T02:24:31;100293.28;;;-6.43;82.42
50292;BME280;36190;54.980;73.388;2023-01-29T02:27:08;100288.94;;;-6.42;82.44
50292;BME280;36190;54.980;73.388;2023-01-29T02:29:46;100279.50;;;-6.45;82.21
50292;BME280;36190;54.980;73.388;2023-01-29T02:32:23;100287.31;;;-6.45;82.13
50292;BME280;36190;54.980;73.388;2023-01-29T02:35:02;100293.34;;;-6.44;82.34
50292;BME280;36190;54.980;73.388;2023-01-29T02:37:50;100308.84;;;-6.43;82.35
50292;BME280;36190;54.980;73.388;2023-01-29T02:40:25;100314.03;;;-6.43;82.34
50292;BME280;36190;54.980;73.388;2023-01-29T02:43:02;100325.22;;;-6.41;82.37
50292;BME280;36190;54.980;73.388;2023-01-29T02:45:39;100314.75;;;-6.39;82.38
50292;BME280;36190;54.980;73.388;2023-01-29T02:48:13;100327.69;;;-6.38;82.36
50292;BME280;36190;54.980;73.388;2023-01-29T02:50:45;100327.56;;;-6.35;82.46
50292;BME280;36190;54.980;73.388;2023-01-29T02:53:18;100337.91;;;-6.33;82.61
50292;BME280;36190;54.980;73.388;2023-01-29T02:55:53;100323.41;;;-6.39;82.44
50292;BME280;36190;54.980;73.388;2023-01-29T02:58:28;100334.19;;;-6.27;82.71
50292;BME280;36190;54.980;73.388;2023-01-29T03:01:02;100328.91;;;-6.24;82.64
50292;BME280;36190;54.980;73.388;2023-01-29T03:03:34;100332.47;;;-6.27;82.68
50292;BME280;36190;54.980;73.388;2023-01-29T03:06:05;100332.28;;;-6.22;82.71
50292;BME280;36190;54.980;73.388;2023-01-29T03:08:39;100333.97;;;-6.21;82.85
50292;BME280;36190;54.980;73.388;2023-01-29T03:11:11;100320.44;;;-6.29;82.58
50292;BME280;36190;54.980;73.388;2023-01-29T03:13:44;100337.34;;;-6.19;82.83
50292;BME280;36190;54.980;73.388;2023-01-29T03:16:19;100346.56;;;-6.12;82.93
50292;BME280;36190;54.980;73.388;2023-01-29T03:18:52;100356.00;;;-6.09;82.76
50292;BME280;36190;54.980;73.388;2023-01-29T03:21:24;100320.44;;;-6.29;82.94
50292;BME280;36190;54.980;73.388;2023-01-29T03:24:14;100353.41;;;-6.09;82.97
50292;BME280;36190;54.980;73.388;2023-01-29T03:27:01;100358.34;;;-6.03;82.97
50292;BME280;36190;54.980;73.388;2023-01-29T03:29:49;100362.56;;;-6.00;82.95
50292;BME280;36190;54.980;73.388;2023-01-29T03:32:38;100368.41;;;-5.95;82.93
50292;BME280;36190;54.980;73.388;2023-01-29T03:35:07;100369.16;;;-5.93;83.10
50292;BME280;36190;54.980;73.388;2023-01-29T03:37:38;100352.16;;;-6.00;82.74
50292;BME280;36190;54.980;73.388;2023-01-29T03:40:08;100368.00;;;-5.86;83.04
50292;BME280;36190;54.980;73.388;2023-01-29T03:42:47;100377.34;;;-5.80;82.96
50292;BME280;36190;54.980;73.388;2023-01-29T03:45:20;100375.50;;;-5.78;82.93
50292;BME280;36190;54.980;73.388;2023-01-29T03:48:00;100385.66;;;-5.72;82.96
50292;BME280;36190;54.980;73.388;2023-01-29T03:50:35;100385.56;;;-5.70;82.96
50292;BME280;36190;54.980;73.388;2023-01-29T03:53:12;100389.81;;;-5.68;82.98
50292;BME280;36190;54.980;73.388;2023-01-29T03:55:51;100386.34;;;-5.68;82.86
50292;BME280;36190;54.980;73.388;2023-01-29T03:58:24;100386.25;;;-5.65;83.08
50292;BME280;36190;54.980;73.388;2023-01-29T04:00:58;100392.88;;;-5.58;83.11
50292;BME280;36190;54.980;73.388;2023-01-29T04:03:33;100395.22;;;-5.52;83.03
50292;BME280;36190;54.980;73.388;2023-01-29T04:06:08;100406.06;;;-5.42;82.98
50292;BME280;36190;54.980;73.388;2023-01-29T04:08:47;100407.44;;;-5.33;82.90
50292;BME280;36190;54.980;73.388;2023-01-29T04:11:19;100403.91;;;-5.32;82.60
50292;BME280;36190;54.980;73.388;2023-01-29T04:13:48;100402.84;;;-5.28;82.86
50292;BME280;36190;54.980;73.388;2023-01-29T04:16:18;100409.78;;;-5.27;82.85
50292;BME280;36190;54.980;73.388;2023-01-29T04:18:49;100414.13;;;-5.27;82.81
50292;BME280;36190;54.980;73.388;2023-01-29T04:21:18;100409.91;;;-5.30;83.00
50292;BME280;36190;54.980;73.388;2023-01-29T04:23:45;100421.88;;;-5.26;83.04
50292;BME280;36190;54.980;73.388;2023-01-29T04:26:41;100416.66;;;-5.26;83.03
50292;BME280;36190;54.980;73.388;2023-01-29T04:29:24;100408.59;;;-5.40;83.19
50292;BME280;36190;54.980;73.388;2023-01-29T04:32:01;100426.34;;;-5.29;83.04
50292;BME280;36190;54.980;73.388;2023-01-29T04:34:42;100427.91;;;-5.25;83.18
50292;BME280;36190;54.980;73.388;2023-01-29T04:37:16;100423.56;;;-5.25;82.97
50292;BME280;36190;54.980;73.388;2023-01-29T04:39:54;100406.25;;;-5.26;83.32
50292;BME280;36190;54.980;73.388;2023-01-29T04:42:30;100426.28;;;-5.07;83.16
50292;BME280;36190;54.980;73.388;2023-01-29T04:45:03;100430.31;;;-5.00;82.97
50292;BME280;36190;54.980;73.388;2023-01-29T04:47:43;100423.22;;;-4.96;82.95
50292;BME280;36190;54.980;73.388;2023-01-29T04:50:19;100435.59;;;-4.82;82.96
50292;BME280;36190;54.980;73.388;2023-01-29T04:52:53;100439.63;;;-4.75;82.72
50292;BME280;36190;54.980;73.388;2023-01-29T04:55:28;100435.06;;;-4.70;82.47
50292;BME280;36190;54.980;73.388;2023-01-29T04:58:03;100435.19;;;-4.73;82.57
50292;BME280;36190;54.980;73.388;2023-01-29T05:00:38;100455.53;;;-4.62;82.51
50292;BME280;36190;54.980;73.388;2023-01-29T05:03:07;100457.13;;;-4.58;82.30
50292;BME280;36190;54.980;73.388;2023-01-29T05:05:39;100455.06;;;-4.51;82.26
50292;BME280;36190;54.980;73.388;2023-01-29T05:08:08;100458.59;;;-4.52;82.01
50292;BME280;36190;54.980;73.388;2023-01-29T05:10:38;100463.78;;;-4.52;81.99
50292;BME280;36190;54.980;73.388;2023-01-29T05:13:08;100458.59;;;-4.52;81.91
50292;BME280;36190;54.980;73.388;2023-01-29T05:15:40;100469.41;;;-4.42;81.78
50292;BME280;36190;54.980;73.388;2023-01-29T05:18:08;100480.41;;;-4.35;81.47
50292;BME280;36190;54.980;73.388;2023-01-29T05:20:38;100484.78;;;-4.36;81.16
50292;BME280;36190;54.980;73.388;2023-01-29T05:23:08;100487.25;;;-4.33;81.00
50292;BME280;36190;54.980;73.388;2023-01-29T05:25:36;100468.16;;;-4.33;80.95
50292;BME280;36190;54.980;73.388;2023-01-29T05:28:04;100486.53;;;-4.17;80.78
50292;BME280;36190;54.980;73.388;2023-01-29T05:30:33;100481.25;;;-4.16;80.39
50292;BME280;36190;54.980;73.388;2023-01-29T05:33:01;100504.59;;;-4.12;80.37
50292;BME280;36190;54.980;73.388;2023-01-29T05:35:28;100504.84;;;-4.19;79.63
50292;BME280;36190;54.980;73.388;2023-01-29T05:37:57;100517.88;;;-4.19;79.50
50292;BME280;36190;54.980;73.388;2023-01-29T05:40:25;100509.22;;;-4.19;79.21
50292;BME280;36190;54.980;73.388;2023-01-29T05:42:52;100519.84;;;-4.24;78.72
50292;BME280;36190;54.980;73.388;2023-01-29T05:45:20;100507.25;;;-4.33;78.26
50292;BME280;36190;54.980;73.388;2023-01-29T05:47:47;100518.69;;;-4.37;78.40
50292;BME280;36190;54.980;73.388;2023-01-29T05:50:15;100526.19;;;-4.30;78.25
50292;BME280;36190;54.980;73.388;2023-01-29T05:52:43;100528.78;;;-4.30;77.73
50292;BME280;36190;54.980;73.388;2023-01-29T05:55:11;100531.25;;;-4.26;77.64
50292;BME280;36190;54.980;73.388;2023-01-29T05:57:39;100547.59;;;-4.23;77.27
50292;BME280;36190;54.980;73.388;2023-01-29T06:00:07;100532.88;;;-4.24;76.79
50292;BME280;36190;54.980;73.388;2023-01-29T06:02:35;100541.25;;;-4.36;76.46
50292;BME280;36190;54.980;73.388;2023-01-29T06:05:03;100525.13;;;-4.45;76.50
50292;BME280;36190;54.980;73.388;2023-01-29T06:07:30;100533.50;;;-4.38;76.34
50292;BME280;36190;54.980;73.388;2023-01-29T06:09:58;100532.25;;;-4.29;76.23
50292;BME280;36190;54.980;73.388;2023-01-29T06:12:27;100530.81;;;-4.17;75.95
50292;BME280;36190;54.980;73.388;2023-01-29T06:14:54;100552.53;;;-4.17;75.46
50292;BME280;36190;54.980;73.388;2023-01-29T06:17:22;100533.78;;;-4.25;75.42
50292;BME280;36190;54.980;73.388;2023-01-29T06:19:49;100536.59;;;-4.30;75.26
50292;BME280;36190;54.980;73.388;2023-01-29T06:22:17;100544.69;;;-4.36;75.28
50292;BME280;36190;54.980;73.388;2023-01-29T06:24:44;100541.38;;;-4.39;75.36
50292;BME280;36190;54.980;73.388;2023-01-29T06:27:12;100551.72;;;-4.38;75.27
50292;BME280;36190;54.980;73.388;2023-01-29T06:29:40;100551.78;;;-4.39;75.19
50292;BME280;36190;54.980;73.388;2023-01-29T06:32:08;100551.94;;;-4.43;75.04
50292;BME280;36190;54.980;73.388;2023-01-29T06:34:35;100551.94;;;-4.43;75.19
50292;BME280;36190;54.980;73.388;2023-01-29T06:37:03;100560.00;;;-4.28;74.70
50292;BME280;36190;54.980;73.388;2023-01-29T06:39:30;100562.88;;;-4.34;74.59
50292;BME280;36190;54.980;73.388;2023-01-29T06:41:58;100569.41;;;-4.45;74.86
50292;BME280;36190;54.980;73.388;2023-01-29T06:44:25;100564.56;;;-4.54;74.98
50292;BME280;36190;54.980;73.388;2023-01-29T06:46:54;100568.38;;;-4.61;74.99
50292;BME280;36190;54.980;73.388;2023-01-29T06:49:22;100571.88;;;-4.62;75.24
50292;BME280;36190;54.980;73.388;2023-01-29T06:51:49;100570.69;;;-4.55;75.07
50292;BME280;36190;54.980;73.388;2023-01-29T06:54:16;100568.03;;;-4.53;74.56
50292;BME280;36190;54.980;73.388;2023-01-29T06:56:44;100575.78;;;-4.52;74.77
50292;BME280;36190;54.980;73.388;2023-01-29T06:59:11;100578.09;;;-4.46;74.57
50292;BME280;36190;54.980;73.388;2023-01-29T07:01:39;100574.63;;;-4.45;74.40
50292;BME280;36190;54.980;73.388;2023-01-29T07:04:10;100578.75;;;-4.40;74.39
50292;BME280;36190;54.980;73.388;2023-01-29T07:06:37;100570.53;;;-4.31;74.15
50292;BME280;36190;54.980;73.388;2023-01-29T07:09:05;100570.00;;;-4.19;74.11
50292;BME280;36190;54.980;73.388;2023-01-29T07:11:33;100576.06;;;-3.99;73.91
50292;BME280;36190;54.980;73.388;2023-01-29T07:14:02;100578.34;;;-3.91;73.35
50292;BME280;36190;54.980;73.388;2023-01-29T07:16:30;100569.66;;;-3.92;73.09
50292;BME280;36190;54.980;73.388;2023-01-29T07:18:57;100586.44;;;-3.97;72.90
50292;BME280;36190;54.980;73.388;2023-01-29T07:21:26;100585.22;;;-4.09;72.88
50292;BME280;36190;54.980;73.388;2023-01-29T07:23:54;100589.00;;;-4.17;73.37
50292;BME280;36190;54.980;73.388;2023-01-29T07:26:21;100596.88;;;-4.18;73.42
50292;BME280;36190;54.980;73.388;2023-01-29T07:28:49;100595.00;;;-4.15;73.49
50292;BME280;36190;54.980;73.388;2023-01-29T07:31:16;100592.28;;;-4.11;73.34
50292;BME280;36190;54.980;73.388;2023-01-29T07:33:44;100587.06;;;-4.11;73.18
50292;BME280;36190;54.980;73.388;2023-01-29T07:36:11;100582.47;;;-4.06;73.35
50292;BME280;36190;54.980;73.388;2023-01-29T07:38:41;100586.63;;;-4.02;73.07
50292;BME280;36190;54.980;73.388;2023-01-29T07:41:09;100589.09;;;-3.99;73.17
50292;BME280;36190;54.980;73.388;2023-01-29T07:43:37;100587.25;;;-3.97;72.78
50292;BME280;36190;54.980;73.388;2023-01-29T07:46:05;100597.84;;;-4.00;72.88
50292;BME280;36190;54.980;73.388;2023-01-29T07:48:32;100593.53;;;-4.01;72.87
50292;BME280;36190;54.980;73.388;2023-01-29T07:51:00;100594.09;;;-3.94;72.77
50292;BME280;36190;54.980;73.388;2023-01-29T07:53:27;100595.50;;;-3.87;72.61
50292;BME280;36190;54.980;73.388;2023-01-29T07:55:57;100602.28;;;-3.83;72.41
50292;BME280;36190;54.980;73.388;2023-01-29T07:58:24;100611.81;;;-3.82;72.31
50292;BME280;36190;54.980;73.388;2023-01-29T08:00:52;100616.31;;;-3.85;72.14
50292;BME280;36190;54.980;73.388;2023-01-29T08:03:19;100622.72;;;-3.93;72.19
50292;BME280;36190;54.980;73.388;2023-01-29T08:05:47;100613.31;;;-3.97;72.30
50292;BME280;36190;54.980;73.388;2023-01-29T08:08:14;100614.25;;;-3.98;72.24
50292;BME280;36190;54.980;73.388;2023-01-29T08:10:42;100615.81;;;-3.94;72.29
50292;BME280;36190;54.980;73.388;2023-01-29T08:13:11;100618.38;;;-3.92;72.03
50292;BME280;36190;54.980;73.388;2023-01-29T08:15:41;100614.94;;;-3.94;72.00
50292;BME280;36190;54.980;73.388;2023-01-29T08:18:10;100613.47;;;-4.00;72.03
50292;BME280;36190;54.980;73.388;2023-01-29T08:20:37;100615.00;;;-4.15;71.91
50292;BME280;36190;54.980;73.388;2023-01-29T08:23:12;100589.13;;;-4.39;72.05
50292;BME280;36190;54.980;73.388;2023-01-29T08:25:40;100604.94;;;-4.44;72.16
50292;BME280;36190;54.980;73.388;2023-01-29T08:28:08;100613.16;;;-4.53;72.40
50292;BME280;36190;54.980;73.388;2023-01-29T08:30:38;100619.41;;;-4.57;72.66
50292;BME280;36190;54.980;73.388;2023-01-29T08:33:05;100628.31;;;-4.63;72.52
50292;BME280;36190;54.980;73.388;2023-01-29T08:35:32;100619.13;;;-4.72;72.74
50292;BME280;36190;54.980;73.388;2023-01-29T08:38:01;100621.47;;;-4.86;72.71
50292;BME280;36190;54.980;73.388;2023-01-29T08:40:31;100627.03;;;-4.95;72.94
50292;BME280;36190;54.980;73.388;2023-01-29T08:42:59;100624.44;;;-4.95;73.06
50292;BME280;36190;54.980;73.388;2023-01-29T08:45:27;100620.75;;;-4.90;72.88
50292;BME280;36190;54.980;73.388;2023-01-29T08:47:56;100624.47;;;-4.75;73.03
50292;BME280;36190;54.980;73.388;2023-01-29T08:50:23;100625.66;;;-4.61;72.66
50292;BME280;36190;54.980;73.388;2023-01-29T08:52:56;100617.50;;;-4.53;72.51
50292;BME280;36190;54.980;73.388;2023-01-29T08:55:24;100623.03;;;-4.40;72.54
50292;BME280;36190;54.980;73.388;2023-01-29T08:57:52;100607.66;;;-4.26;72.36
50292;BME280;36190;54.980;73.388;2023-01-29T09:00:20;100607.19;;;-4.15;72.13
50292;BME280;36190;54.980;73.388;2023-01-29T09:02:47;100619.94;;;-4.09;71.78
50292;BME280;36190;54.980;73.388;2023-01-29T09:05:16;100624.31;;;-4.09;71.88
50292;BME280;36190;54.980;73.388;2023-01-29T09:07:44;100633.25;;;-4.15;71.91
50292;BME280;36190;54.980;73.388;2023-01-29T09:10:11;100624.63;;;-4.17;72.16
50292;BME280;36190;54.980;73.388;2023-01-29T09:12:39;100625.50;;;-4.17;72.10
50292;BME280;36190;54.980;73.388;2023-01-29T09:15:07;100624.16;;;-4.06;72.04
50292;BME280;36190;54.980;73.388;2023-01-29T09:17:35;100629.78;;;-3.95;72.14
50292;BME280;36190;54.980;73.388;2023-01-29T09:20:03;100623.72;;;-3.76;71.82
50292;BME280;36190;54.980;73.388;2023-01-29T09:22:33;100629.06;;;-3.60;71.49
50292;BME280;36190;54.980;73.388;2023-01-29T09:25:00;100639.59;;;-3.62;71.28
50292;BME280;36190;54.980;73.388;2023-01-29T09:27:28;100640.13;;;-3.74;71.18
50292;BME280;36190;54.980;73.388;2023-01-29T09:29:55;100644.22;;;-3.88;71.24
50292;BME280;36190;54.980;73.388;2023-01-29T09:32:22;100643.84;;;-3.99;71.53
50292;BME280;36190;54.980;73.388;2023-01-29T09:34:50;100638.00;;;-4.04;71.68
50292;BME280;36190;54.980;73.388;2023-01-29T09:37:17;100640.63;;;-4.04;71.61
50292;BME280;36190;54.980;73.388;2023-01-29T09:39:49;100641.38;;;-4.02;71.73
50292;BME280;36190;54.980;73.388;2023-01-29T09:42:20;100645.81;;;-4.04;71.65
50292;BME280;36190;54.980;73.388;2023-01-29T09:44:57;100644.25;;;-4.08;71.78
50292;BME280;36190;54.980;73.388;2023-01-29T09:47:28;100645.44;;;-4.16;71.56
50292;BME280;36190;54.980;73.388;2023-01-29T09:50:00;100643.38;;;-4.28;71.79
50292;BME280;36190;54.980;73.388;2023-01-29T09:52:32;100658.16;;;-4.29;71.93
50292;BME280;36190;54.980;73.388;2023-01-29T09:55:05;100651.38;;;-4.33;71.93
50292;BME280;36190;54.980;73.388;2023-01-29T09:57:40;100646.03;;;-4.30;71.97
50292;BME280;36190;54.980;73.388;2023-01-29T10:00:14;100659.13;;;-4.31;71.73
50292;BME280;36190;54.980;73.388;2023-01-29T10:02:53;100652.75;;;-4.45;71.87
50292;BME280;36190;54.980;73.388;2023-01-29T10:05:43;100653.22;;;-4.56;72.08
50292;BME280;36190;54.980;73.388;2023-01-29T10:08:35;100653.44;;;-4.62;72.27
50292;BME280;36190;54.980;73.388;2023-01-29T10:11:14;100649.22;;;-4.64;72.23
50292;BME280;36190;54.980;73.388;2023-01-29T10:13:48;100656.38;;;-4.70;72.23
50292;BME280;36190;54.980;73.388;2023-01-29T10:16:34;100664.06;;;-4.66;72.35
50292;BME280;36190;54.980;73.388;2023-01-29T10:19:17;100646.03;;;-4.71;72.27
50292;BME280;36190;54.980;73.388;2023-01-29T10:22:06;100650.13;;;-4.65;72.30
50292;BME280;36190;54.980;73.388;2023-01-29T10:24:40;100667.63;;;-4.69;72.38
50292;BME280;36190;54.980;73.388;2023-01-29T10:27:16;100666.38;;;-4.81;72.24
50292;BME280;36190;54.980;73.388;2023-01-29T10:29:47;100678.06;;;-4.91;72.43
50292;BME280;36190;54.980;73.388;2023-01-29T10:32:17;100661.88;;;-4.98;72.67
50292;BME280;36190;54.980;73.388;2023-01-29T10:34:48;100672.31;;;-4.77;72.92
50292;BME280;36190;54.980;73.388;2023-01-29T10:37:17;100669.03;;;-4.60;72.42
50292;BME280;36190;54.980;73.388;2023-01-29T10:39:48;100664.25;;;-4.50;72.13
50292;BME280;36190;54.980;73.388;2023-01-29T10:42:25;100674.84;;;-4.33;71.94
50292;BME280;36190;54.980;73.388;2023-01-29T10:45:03;100676.06;;;-4.21;71.40
50292;BME280;36190;54.980;73.388;2023-01-29T10:47:45;100679.75;;;-4.26;71.53
50292;BME280;36190;54.980;73.388;2023-01-29T10:50:25;100675.41;;;-4.47;71.66
50292;BME280;36190;54.980;73.388;2023-01-29T10:53:18;100680.59;;;-4.67;71.97
50292;BME280;36190;54.980;73.388;2023-01-29T10:55:56;100676.97;;;-4.86;72.33
50292;BME280;36190;54.980;73.388;2023-01-29T10:58:35;100650.47;;;-5.18;72.70
50292;BME280;36190;54.980;73.388;2023-01-29T11:01:07;100677.28;;;-5.16;72.94
50292;BME280;36190;54.980;73.388;2023-01-29T11:03:34;100685.41;;;-5.23;73.13
50292;BME280;36190;54.980;73.388;2023-01-29T11:06:09;100682.38;;;-5.35;73.41
50292;BME280;36190;54.980;73.388;2023-01-29T11:08:42;100657.38;;;-5.63;73.42
50292;BME280;36190;54.980;73.388;2023-01-29T11:11:14;100686.69;;;-5.58;73.65
50292;BME280;36190;54.980;73.388;2023-01-29T11:13:47;100677.06;;;-5.80;74.10
50292;BME280;36190;54.980;73.388;2023-01-29T11:16:17;100701.34;;;-5.81;74.21
50292;BME280;36190;54.980;73.388;2023-01-29T11:18:55;100699.13;;;-5.91;74.35
50292;BME280;36190;54.980;73.388;2023-01-29T11:21:24;100702.16;;;-6.02;74.83
50292;BME280;36190;54.980;73.388;2023-01-29T11:24:06;100708.53;;;-6.11;74.88
50292;BME280;36190;54.980;73.388;2023-01-29T11:26:37;100717.59;;;-6.23;75.04
50292;BME280;36190;54.980;73.388;2023-01-29T11:29:28;100717.09;;;-6.35;75.25
50292;BME280;36190;54.980;73.388;2023-01-29T11:31:57;100719.19;;;-6.46;75.40
50292;BME280;36190;54.980;73.388;2023-01-29T11:34:25;100723.94;;;-6.59;75.55
50292;BME280;36190;54.980;73.388;2023-01-29T11:36:57;100726.09;;;-6.72;75.73
50292;BME280;36190;54.980;73.388;2023-01-29T11:39:26;100720.47;;;-6.86;76.02
50292;BME280;36190;54.980;73.388;2023-01-29T11:41:56;100713.28;;;-7.05;76.10
50292;BME280;36190;54.980;73.388;2023-01-29T11:44:31;100727.03;;;-7.03;76.23
50292;BME280;36190;54.980;73.388;2023-01-29T11:47:10;100732.53;;;-7.12;76.38
50292;BME280;36190;54.980;73.388;2023-01-29T11:49:39;100712.19;;;-7.26;76.53
50292;BME280;36190;54.980;73.388;2023-01-29T11:52:10;100724.91;;;-7.19;76.61
50292;BME280;36190;54.980;73.388;2023-01-29T11:54:44;100726.06;;;-7.27;76.57
50292;BME280;36190;54.980;73.388;2023-01-29T11:57:23;100729.63;;;-7.32;76.67
50292;BME280;36190;54.980;73.388;2023-01-29T11:59:55;100724.75;;;-7.42;76.80
50292;BME280;36190;54.980;73.388;2023-01-29T12:02:30;100734.16;;;-7.38;76.85
50292;BME280;36190;54.980;73.388;2023-01-29T12:05:03;100724.25;;;-7.55;76.90
50292;BME280;36190;54.980;73.388;2023-01-29T12:07:32;100724.38;;;-7.60;76.89
50292;BME280;36190;54.980;73.388;2023-01-29T12:10:00;100741.47;;;-7.53;76.90
50292;BME280;36190;54.980;73.388;2023-01-29T12:12:35;100748.50;;;-7.58;77.10
50292;BME280;36190;54.980;73.388;2023-01-29T12:15:21;100748.59;;;-7.61;77.32
50292;BME280;36190;54.980;73.388;2023-01-29T12:17:56;100749.69;;;-7.70;77.28
50292;BME280;36190;54.980;73.388;2023-01-29T12:20:30;100747.16;;;-7.71;77.32
50292;BME280;36190;54.980;73.388;2023-01-29T12:23:13;100757.72;;;-7.79;77.41
50292;BME280;36190;54.980;73.388;2023-01-29T12:25:55;100765.72;;;-7.87;77.42
50292;BME280;36190;54.980;73.388;2023-01-29T12:28:38;100768.50;;;-7.95;77.44
50292;BME280;36190;54.980;73.388;2023-01-29T12:31:20;100755.94;;;-8.10;77.59
50292;BME280;36190;54.980;73.388;2023-01-29T12:33:54;100754.69;;;-8.29;77.88
50292;BME280;36190;54.980;73.388;2023-01-29T12:36:30;100772.19;;;-8.40;78.17
50292;BME280;36190;54.980;73.388;2023-01-29T12:38:59;100774.28;;;-8.53;78.34
50292;BME280;36190;54.980;73.388;2023-01-29T12:41:35;100782.28;;;-8.64;78.98
50292;BME280;36190;54.980;73.388;2023-01-29T12:44:09;100739.88;;;-8.96;79.08
50292;BME280;36190;54.980;73.388;2023-01-29T12:46:43;100777.19;;;-8.67;79.75
50292;BME280;36190;54.980;73.388;2023-01-29T12:49:18;100768.44;;;-8.63;79.74
50292;BME280;36190;54.980;73.388;2023-01-29T12:51:53;100770.00;;;-8.56;79.81
50292;BME280;36190;54.980;73.388;2023-01-29T12:54:30;100752.78;;;-8.57;79.72
50292;BME280;36190;54.980;73.388;2023-01-29T12:57:02;100773.88;;;-8.37;79.77
50292;BME280;36190;54.980;73.388;2023-01-29T12:59:38;100758.38;;;-8.39;79.58
50292;BME280;36190;54.980;73.388;2023-01-29T13:02:17;100772.63;;;-8.22;79.51
50292;BME280;36190;54.980;73.388;2023-01-29T13:04:52;100775.97;;;-8.17;79.58